sensor_id;sensor_type;location;lat;lon;timestamp;temperature;humidity
72440;DHT22;60446;50.752;4.352;2024-01-27T00:00:00;-0.50;99.90
72440;DHT22;60446;50.752;4.352;2024-01-27T00:02:27;-0.50;99.90
72440;DHT22;60446;50.752;4.352;2024-01-27T00:04:55;-0.50;99.90
72440;DHT22;60446;50.752;4.352;2024-01-27T00:07:23;-0.50;99.90
72440;DHT22;60446;50.752;4.352;2024-01-27T00:09:52;-0.60;99.90
72440;DHT22;60446;50.752;4.352;2024-01-27T00:12:19;-0.60;99.90
72440;DHT22;60446;50.752;4.352;2024-01-27T00:14:46;-0.60;99.90
72440;DHT22;60446;50.752;4.352;2024-01-27T00:17:14;-0.60;99.90
72440;DHT22;60446;50.752;4.352;2024-01-27T00:19:42;-0.60;99.90
72440;DHT22;60446;50.752;4.352;2024-01-27T00:22:09;-0.60;99.90
72440;DHT22;60446;50.752;4.352;2024-01-27T00:24:36;-0.80;99.90
72440;DHT22;60446;50.752;4.352;2024-01-27T00:27:03;-0.90;99.90
72440;DHT22;60446;50.752;4.352;2024-01-27T00:29:31;-0.70;99.90
72440;DHT22;60446;50.752;4.352;2024-01-27T00:31:58;-0.60;99.90
72440;DHT22;60446;50.752;4.352;2024-01-27T00:34:27;-0.60;99.90
72440;DHT22;60446;50.752;4.352;2024-01-27T00:36:54;-0.70;99.90
72440;DHT22;60446;50.752;4.352;2024-01-27T00:39:21;-0.80;99.90
72440;DHT22;60446;50.752;4.352;2024-01-27T00:41:49;-0.70;99.90
72440;DHT22;60446;50.752;4.352;2024-01-27T00:44:16;-0.70;99.90
72440;DHT22;60446;50.752;4.352;2024-01-27T00:46:44;-0.70;99.90
72440;DHT22;60446;50.752;4.352;2024-01-27T00:49:11;-0.70;99.90
72440;DHT22;60446;50.752;4.352;2024-01-27T00:51:38;-0.70;99.90
72440;DHT22;60446;50.752;4.352;2024-01-27T00:54:06;-0.70;99.90
72440;DHT22;60446;50.752;4.352;2024-01-27T00:56:33;-0.70;99.90
72440;DHT22;60446;50.752;4.352;2024-01-27T00:59:01;-0.70;99.90
72440;DHT22;60446;50.752;4.352;2024-01-27T01:01:28;-0.80;99.90
72440;DHT22;60446;50.752;4.352;2024-01-27T01:03:55;-0.80;99.90
72440;DHT22;60446;50.752;4.352;2024-01-27T01:06:23;-0.90;99.90
72440;DHT22;60446;50.752;4.352;2024-01-27T01:08:50;-0.90;99.90
72440;DHT22;60446;50.752;4.352;2024-01-27T01:11:18;-0.80;99.90
72440;DHT22;60446;50.752;4.352;2024-01-27T01:13:45;-0.80;99.90
72440;DHT22;60446;50.752;4.352;2024-01-27T01:16:12;-0.90;99.90
72440;DHT22;60446;50.752;4.352;2024-01-27T01:18:40;-0.90;99.90
72440;DHT22;60446;50.752;4.352;2024-01-27T01:21:08;-0.90;99.90
72440;DHT22;60446;50.752;4.352;2024-01-27T01:23:35;-1.00;99.90
72440;DHT22;60446;50.752;4.352;2024-01-27T01:26:02;-1.10;99.90
72440;DHT22;60446;50.752;4.352;2024-01-27T01:28:29;-1.00;99.90
72440;DHT22;60446;50.752;4.352;2024-01-27T01:30:58;-0.80;99.90
72440;DHT22;60446;50.752;4.352;2024-01-27T01:33:25;-0.80;99.90
72440;DHT22;60446;50.752;4.352;2024-01-27T01:35:53;-0.80;99.90
72440;DHT22;60446;50.752;4.352;2024-01-27T01:38:20;-0.80;99.90
72440;DHT22;60446;50.752;4.352;2024-01-27T01:40:48;-0.80;99.90
72440;DHT22;60446;50.752;4.352;2024-01-27T01:43:15;-0.90;99.90
72440;DHT22;60446;50.752;4.352;2024-01-27T01:45:42;-0.90;99.90
72440;DHT22;60446;50.752;4.352;2024-01-27T01:48:09;-0.90;99.90
72440;DHT22;60446;50.752;4.352;2024-01-27T01:50:37;-0.90;99.90
72440;DHT22;60446;50.752;4.352;2024-01-27T01:53:04;-1.00;99.90
72440;DHT22;60446;50.752;4.352;2024-01-27T01:55:32;-1.20;99.90
72440;DHT22;60446;50.752;4.352;2024-01-27T01:57:59;-1.10;99.90
72440;DHT22;60446;50.752;4.352;2024-01-27T02:00:26;-1.00;99.90
72440;DHT22;60446;50.752;4.352;2024-01-27T02:02:54;-1.00;99.90
72440;DHT22;60446;50.752;4.352;2024-01-27T02:05:21;-1.00;99.90
72440;DHT22;60446;50.752;4.352;2024-01-27T02:07:48;-1.10;99.90
72440;DHT22;60446;50.752;4.352;2024-01-27T02:10:16;-1.10;99.90
72440;DHT22;60446;50.752;4.352;2024-01-27T02:12:44;-1.00;99.90
72440;DHT22;60446;50.752;4.352;2024-01-27T02:15:13;-1.00;99.90
72440;DHT22;60446;50.752;4.352;2024-01-27T02:17:41;-1.00;99.90
72440;DHT22;60446;50.752;4.352;2024-01-27T02:20:09;-1.10;99.90
72440;DHT22;60446;50.752;4.352;2024-01-27T02:22:36;-1.30;99.90
72440;DHT22;60446;50.752;4.352;2024-01-27T02:25:04;-1.20;99.90
72440;DHT22;60446;50.752;4.352;2024-01-27T02:27:31;-1.10;99.90
72440;DHT22;60446;50.752;4.352;2024-01-27T02:29:58;-1.20;99.90
72440;DHT22;60446;50.752;4.352;2024-01-27T02:32:27;-1.20;99.90
72440;DHT22;60446;50.752;4.352;2024-01-27T02:34:54;-1.20;99.90
72440;DHT22;60446;50.752;4.352;2024-01-27T02:37:21;-1.20;99.90
72440;DHT22;60446;50.752;4.352;2024-01-27T02:39:48;-1.20;99.90
72440;DHT22;60446;50.752;4.352;2024-01-27T02:42:16;-1.20;99.90
72440;DHT22;60446;50.752;4.352;2024-01-27T02:44:44;-1.20;99.90
72440;DHT22;60446;50.752;4.352;2024-01-27T02:47:12;-1.20;99.90
72440;DHT22;60446;50.752;4.352;2024-01-27T02:49:39;-1.10;99.90
72440;DHT22;60446;50.752;4.352;2024-01-27T02:52:07;-1.20;99.90
72440;DHT22;60446;50.752;4.352;2024-01-27T02:54:35;-1.20;99.90
72440;DHT22;60446;50.752;4.352;2024-01-27T02:57:03;-1.10;99.90
72440;DHT22;60446;50.752;4.352;2024-01-27T02:59:30;-1.20;99.90
72440;DHT22;60446;50.752;4.352;2024-01-27T03:01:57;-1.30;99.90
72440;DHT22;60446;50.752;4.352;2024-01-27T03:04:24;-1.30;99.90
72440;DHT22;60446;50.752;4.352;2024-01-27T03:06:52;-1.30;99.90
72440;DHT22;60446;50.752;4.352;2024-01-27T03:09:19;-1.20;99.90
72440;DHT22;60446;50.752;4.352;2024-01-27T03:11:46;-1.10;99.90
72440;DHT22;60446;50.752;4.352;2024-01-27T03:14:13;-1.10;99.90
72440;DHT22;60446;50.752;4.352;2024-01-27T03:16:43;-1.20;99.90
72440;DHT22;60446;50.752;4.352;2024-01-27T03:19:11;-1.30;99.90
72440;DHT22;60446;50.752;4.352;2024-01-27T03:21:38;-1.40;99.90
72440;DHT22;60446;50.752;4.352;2024-01-27T03:24:05;-1.40;99.90
72440;DHT22;60446;50.752;4.352;2024-01-27T03:26:33;-1.20;99.90
72440;DHT22;60446;50.752;4.352;2024-01-27T03:29:00;-1.20;99.90
72440;DHT22;60446;50.752;4.352;2024-01-27T03:31:31;-1.30;99.90
72440;DHT22;60446;50.752;4.352;2024-01-27T03:33:59;-1.30;99.90
72440;DHT22;60446;50.752;4.352;2024-01-27T03:36:27;-1.40;99.90
72440;DHT22;60446;50.752;4.352;2024-01-27T03:38:56;-1.50;99.90
72440;DHT22;60446;50.752;4.352;2024-01-27T03:41:24;-1.50;99.90
72440;DHT22;60446;50.752;4.352;2024-01-27T03:43:52;-1.40;99.90
72440;DHT22;60446;50.752;4.352;2024-01-27T03:46:19;-1.40;99.90
72440;DHT22;60446;50.752;4.352;2024-01-27T03:48:46;-1.50;99.90
72440;DHT22;60446;50.752;4.352;2024-01-27T03:51:14;-1.60;99.90
72440;DHT22;60446;50.752;4.352;2024-01-27T03:53:41;-1.80;99.90
72440;DHT22;60446;50.752;4.352;2024-01-27T03:56:11;-1.80;99.90
72440;DHT22;60446;50.752;4.352;2024-01-27T03:58:39;-1.70;99.90
72440;DHT22;60446;50.752;4.352;2024-01-27T04:01:06;-1.50;99.90
72440;DHT22;60446;50.752;4.352;2024-01-27T04:03:33;-1.30;99.90
72440;DHT22;60446;50.752;4.352;2024-01-27T04:06:01;-1.30;99.90
72440;DHT22;60446;50.752;4.352;2024-01-27T04:08:31;-1.40;99.90
72440;DHT22;60446;50.752;4.352;2024-01-27T04:10:58;-1.40;99.90
72440;DHT22;60446;50.752;4.352;2024-01-27T04:13:26;-1.50;99.90
72440;DHT22;60446;50.752;4.352;2024-01-27T04:15:53;-1.40;99.90
72440;DHT22;60446;50.752;4.352;2024-01-27T04:18:21;-1.40;99.90
72440;DHT22;60446;50.752;4.352;2024-01-27T04:20:48;-1.40;99.90
72440;DHT22;60446;50.752;4.352;2024-01-27T04:23:15;-1.40;99.90
72440;DHT22;60446;50.752;4.352;2024-01-27T04:25:43;-1.50;99.90
72440;DHT22;60446;50.752;4.352;2024-01-27T04:28:11;-1.50;99.90
72440;DHT22;60446;50.752;4.352;2024-01-27T04:30:39;-1.60;99.90
72440;DHT22;60446;50.752;4.352;2024-01-27T04:33:07;-1.60;99.90
72440;DHT22;60446;50.752;4.352;2024-01-27T04:35:35;-1.40;99.90
72440;DHT22;60446;50.752;4.352;2024-01-27T04:38:03;-1.50;99.90
72440;DHT22;60446;50.752;4.352;2024-01-27T04:40:30;-1.50;99.90
72440;DHT22;60446;50.752;4.352;2024-01-27T04:42:58;-1.50;99.90
72440;DHT22;60446;50.752;4.352;2024-01-27T04:45:25;-1.70;99.90
72440;DHT22;60446;50.752;4.352;2024-01-27T04:47:52;-1.60;99.90
72440;DHT22;60446;50.752;4.352;2024-01-27T04:50:20;-1.80;99.90
72440;DHT22;60446;50.752;4.352;2024-01-27T04:52:47;-1.70;99.90
72440;DHT22;60446;50.752;4.352;2024-01-27T04:55:14;-1.70;99.90
72440;DHT22;60446;50.752;4.352;2024-01-27T04:57:42;-1.60;99.90
72440;DHT22;60446;50.752;4.352;2024-01-27T05:00:09;-1.70;99.90
72440;DHT22;60446;50.752;4.352;2024-01-27T05:02:40;-1.80;99.90
72440;DHT22;60446;50.752;4.352;2024-01-27T05:05:08;-1.90;99.90
72440;DHT22;60446;50.752;4.352;2024-01-27T05:07:36;-1.80;99.90
72440;DHT22;60446;50.752;4.352;2024-01-27T05:10:04;-1.70;99.90
72440;DHT22;60446;50.752;4.352;2024-01-27T05:12:31;-1.70;99.90
72440;DHT22;60446;50.752;4.352;2024-01-27T05:14:58;-1.60;99.90
72440;DHT22;60446;50.752;4.352;2024-01-27T05:17:26;-1.60;99.90
72440;DHT22;60446;50.752;4.352;2024-01-27T05:19:54;-1.60;99.90
72440;DHT22;60446;50.752;4.352;2024-01-27T05:22:21;-1.60;99.90
72440;DHT22;60446;50.752;4.352;2024-01-27T05:24:48;-1.60;99.90
72440;DHT22;60446;50.752;4.352;2024-01-27T05:27:16;-1.60;99.90
72440;DHT22;60446;50.752;4.352;2024-01-27T05:29:43;-1.60;99.90
72440;DHT22;60446;50.752;4.352;2024-01-27T05:32:10;-1.60;99.90
72440;DHT22;60446;50.752;4.352;2024-01-27T05:34:37;-1.80;99.90
72440;DHT22;60446;50.752;4.352;2024-01-27T05:37:05;-1.70;99.90
72440;DHT22;60446;50.752;4.352;2024-01-27T05:39:32;-1.60;99.90
72440;DHT22;60446;50.752;4.352;2024-01-27T05:42:00;-1.60;99.90
72440;DHT22;60446;50.752;4.352;2024-01-27T05:44:28;-1.60;99.90
72440;DHT22;60446;50.752;4.352;2024-01-27T05:46:55;-1.70;99.90
72440;DHT22;60446;50.752;4.352;2024-01-27T05:49:22;-1.90;99.90
72440;DHT22;60446;50.752;4.352;2024-01-27T05:51:51;-1.80;99.90
72440;DHT22;60446;50.752;4.352;2024-01-27T05:54:18;-1.80;99.90
72440;DHT22;60446;50.752;4.352;2024-01-27T05:56:46;-1.90;99.90
72440;DHT22;60446;50.752;4.352;2024-01-27T05:59:13;-1.80;99.90
72440;DHT22;60446;50.752;4.352;2024-01-27T06:01:40;-1.70;99.90
72440;DHT22;60446;50.752;4.352;2024-01-27T06:04:13;-1.70;99.90
72440;DHT22;60446;50.752;4.352;2024-01-27T06:06:40;-1.70;99.90
72440;DHT22;60446;50.752;4.352;2024-01-27T06:09:08;-1.70;99.90
72440;DHT22;60446;50.752;4.352;2024-01-27T06:11:38;-1.70;99.90
72440;DHT22;60446;50.752;4.352;2024-01-27T06:14:05;-1.80;99.90
72440;DHT22;60446;50.752;4.352;2024-01-27T06:16:33;-1.80;99.90
72440;DHT22;60446;50.752;4.352;2024-01-27T06:19:02;-1.80;99.90
72440;DHT22;60446;50.752;4.352;2024-01-27T06:21:30;-1.90;99.90
72440;DHT22;60446;50.752;4.352;2024-01-27T06:23:58;-1.80;99.90
72440;DHT22;60446;50.752;4.352;2024-01-27T06:26:25;-2.00;99.90
72440;DHT22;60446;50.752;4.352;2024-01-27T06:28:52;-1.90;99.90
72440;DHT22;60446;50.752;4.352;2024-01-27T06:31:20;-1.90;99.90
72440;DHT22;60446;50.752;4.352;2024-01-27T06:33:48;-1.90;99.90
72440;DHT22;60446;50.752;4.352;2024-01-27T06:36:15;-1.70;99.90
72440;DHT22;60446;50.752;4.352;2024-01-27T06:38:43;-1.80;99.90
72440;DHT22;60446;50.752;4.352;2024-01-27T06:41:10;-1.70;99.90
72440;DHT22;60446;50.752;4.352;2024-01-27T06:43:37;-1.70;99.90
72440;DHT22;60446;50.752;4.352;2024-01-27T06:46:04;-1.80;99.90
72440;DHT22;60446;50.752;4.352;2024-01-27T06:48:32;-1.90;99.90
72440;DHT22;60446;50.752;4.352;2024-01-27T06:50:59;-2.00;99.90
72440;DHT22;60446;50.752;4.352;2024-01-27T06:53:27;-2.00;99.90
72440;DHT22;60446;50.752;4.352;2024-01-27T06:55:54;-1.90;99.90
72440;DHT22;60446;50.752;4.352;2024-01-27T06:58:21;-1.90;99.90
72440;DHT22;60446;50.752;4.352;2024-01-27T07:00:48;-1.90;99.90
72440;DHT22;60446;50.752;4.352;2024-01-27T07:03:16;-1.90;99.90
72440;DHT22;60446;50.752;4.352;2024-01-27T07:05:43;-1.90;99.90
72440;DHT22;60446;50.752;4.352;2024-01-27T07:08:10;-1.90;99.90
72440;DHT22;60446;50.752;4.352;2024-01-27T07:10:37;-1.90;99.90
72440;DHT22;60446;50.752;4.352;2024-01-27T07:13:05;-1.90;99.90
72440;DHT22;60446;50.752;4.352;2024-01-27T07:15:35;-1.90;99.90
72440;DHT22;60446;50.752;4.352;2024-01-27T07:18:04;-2.00;99.90
72440;DHT22;60446;50.752;4.352;2024-01-27T07:20:32;-1.90;99.90
72440;DHT22;60446;50.752;4.352;2024-01-27T07:22:59;-1.90;99.90
72440;DHT22;60446;50.752;4.352;2024-01-27T07:25:27;-1.90;99.90
72440;DHT22;60446;50.752;4.352;2024-01-27T07:27:55;-1.80;99.90
72440;DHT22;60446;50.752;4.352;2024-01-27T07:30:22;-1.90;99.90
72440;DHT22;60446;50.752;4.352;2024-01-27T07:32:51;-1.70;99.90
72440;DHT22;60446;50.752;4.352;2024-01-27T07:35:19;-1.70;99.90
72440;DHT22;60446;50.752;4.352;2024-01-27T07:37:46;-1.70;99.90
72440;DHT22;60446;50.752;4.352;2024-01-27T07:40:13;-1.80;99.90
72440;DHT22;60446;50.752;4.352;2024-01-27T07:42:40;-1.80;99.90
72440;DHT22;60446;50.752;4.352;2024-01-27T07:45:08;-1.80;99.90
72440;DHT22;60446;50.752;4.352;2024-01-27T07:47:35;-1.90;99.90
72440;DHT22;60446;50.752;4.352;2024-01-27T07:50:03;-1.80;99.90
72440;DHT22;60446;50.752;4.352;2024-01-27T07:52:31;-2.00;99.90
72440;DHT22;60446;50.752;4.352;2024-01-27T07:54:58;-1.90;99.90
72440;DHT22;60446;50.752;4.352;2024-01-27T07:57:25;-1.90;99.90
72440;DHT22;60446;50.752;4.352;2024-01-27T07:59:52;-1.80;99.90
72440;DHT22;60446;50.752;4.352;2024-01-27T08:02:20;-1.80;99.90
72440;DHT22;60446;50.752;4.352;2024-01-27T08:04:47;-1.80;99.90
72440;DHT22;60446;50.752;4.352;2024-01-27T08:07:14;-1.80;99.90
72440;DHT22;60446;50.752;4.352;2024-01-27T08:09:43;-1.80;99.90
72440;DHT22;60446;50.752;4.352;2024-01-27T08:12:11;-1.80;99.90
72440;DHT22;60446;50.752;4.352;2024-01-27T08:14:38;-1.70;99.90
72440;DHT22;60446;50.752;4.352;2024-01-27T08:17:06;-1.60;99.90
72440;DHT22;60446;50.752;4.352;2024-01-27T08:19:33;-1.50;99.90
72440;DHT22;60446;50.752;4.352;2024-01-27T08:22:01;-1.50;99.90
72440;DHT22;60446;50.752;4.352;2024-01-27T08:24:28;-1.50;99.90
72440;DHT22;60446;50.752;4.352;2024-01-27T08:26:55;-1.50;99.90
72440;DHT22;60446;50.752;4.352;2024-01-27T08:29:22;-1.50;99.90
72440;DHT22;60446;50.752;4.352;2024-01-27T08:31:49;-1.50;99.90
72440;DHT22;60446;50.752;4.352;2024-01-27T08:34:19;-1.40;99.90
72440;DHT22;60446;50.752;4.352;2024-01-27T08:36:46;-1.40;99.90
72440;DHT22;60446;50.752;4.352;2024-01-27T08:39:13;-1.40;99.90
72440;DHT22;60446;50.752;4.352;2024-01-27T08:41:40;-1.30;99.90
72440;DHT22;60446;50.752;4.352;2024-01-27T08:44:07;-1.20;99.90
72440;DHT22;60446;50.752;4.352;2024-01-27T08:46:36;-1.20;99.90
72440;DHT22;60446;50.752;4.352;2024-01-27T08:49:03;-1.20;99.90
72440;DHT22;60446;50.752;4.352;2024-01-27T08:51:30;-1.10;99.90
72440;DHT22;60446;50.752;4.352;2024-01-27T08:53:57;-1.10;99.90
72440;DHT22;60446;50.752;4.352;2024-01-27T08:56:24;-1.00;99.90
72440;DHT22;60446;50.752;4.352;2024-01-27T08:58:52;-0.90;99.90
72440;DHT22;60446;50.752;4.352;2024-01-27T09:01:20;-0.90;99.90
72440;DHT22;60446;50.752;4.352;2024-01-27T09:03:47;-0.80;99.90
72440;DHT22;60446;50.752;4.352;2024-01-27T09:06:14;-0.80;99.90
72440;DHT22;60446;50.752;4.352;2024-01-27T09:08:42;-0.70;99.90
72440;DHT22;60446;50.752;4.352;2024-01-27T09:11:09;-0.60;99.90
72440;DHT22;60446;50.752;4.352;2024-01-27T09:13:36;-0.50;99.90
72440;DHT22;60446;50.752;4.352;2024-01-27T09:16:04;-0.50;99.90
72440;DHT22;60446;50.752;4.352;2024-01-27T09:18:32;-0.50;99.90
72440;DHT22;60446;50.752;4.352;2024-01-27T09:20:59;-0.40;99.90
72440;DHT22;60446;50.752;4.352;2024-01-27T09:23:27;-0.30;99.90
72440;DHT22;60446;50.752;4.352;2024-01-27T09:25:54;-0.20;99.90
72440;DHT22;60446;50.752;4.352;2024-01-27T09:28:21;-0.20;99.90
72440;DHT22;60446;50.752;4.352;2024-01-27T09:30:48;0.00;99.90
72440;DHT22;60446;50.752;4.352;2024-01-27T09:33:16;0.10;99.90
72440;DHT22;60446;50.752;4.352;2024-01-27T09:35:46;0.10;99.90
72440;DHT22;60446;50.752;4.352;2024-01-27T09:38:13;0.20;99.90
72440;DHT22;60446;50.752;4.352;2024-01-27T09:40:41;0.30;99.90
72440;DHT22;60446;50.752;4.352;2024-01-27T09:43:12;0.60;99.90
72440;DHT22;60446;50.752;4.352;2024-01-27T09:45:40;0.70;99.90
72440;DHT22;60446;50.752;4.352;2024-01-27T09:48:10;0.80;99.90
72440;DHT22;60446;50.752;4.352;2024-01-27T09:50:41;0.90;99.90
72440;DHT22;60446;50.752;4.352;2024-01-27T09:53:09;0.90;99.90
72440;DHT22;60446;50.752;4.352;2024-01-27T09:55:36;1.00;99.90
72440;DHT22;60446;50.752;4.352;2024-01-27T09:58:04;1.20;99.90
72440;DHT22;60446;50.752;4.352;2024-01-27T10:00:34;1.30;99.90
72440;DHT22;60446;50.752;4.352;2024-01-27T10:03:04;1.60;99.90
72440;DHT22;60446;50.752;4.352;2024-01-27T10:05:33;1.70;99.90
72440;DHT22;60446;50.752;4.352;2024-01-27T10:08:01;1.90;99.90
72440;DHT22;60446;50.752;4.352;2024-01-27T10:10:28;2.10;99.90
72440;DHT22;60446;50.752;4.352;2024-01-27T10:12:55;2.20;99.90
72440;DHT22;60446;50.752;4.352;2024-01-27T10:15:25;2.40;99.90
72440;DHT22;60446;50.752;4.352;2024-01-27T10:18:05;2.40;99.90
72440;DHT22;60446;50.752;4.352;2024-01-27T10:20:33;2.60;99.90
72440;DHT22;60446;50.752;4.352;2024-01-27T10:23:10;2.90;99.90
72440;DHT22;60446;50.752;4.352;2024-01-27T10:25:39;3.10;99.90
72440;DHT22;60446;50.752;4.352;2024-01-27T10:28:09;3.30;99.90
72440;DHT22;60446;50.752;4.352;2024-01-27T10:30:37;3.30;99.90
72440;DHT22;60446;50.752;4.352;2024-01-27T10:33:04;3.30;99.90
72440;DHT22;60446;50.752;4.352;2024-01-27T10:35:35;3.40;99.90
72440;DHT22;60446;50.752;4.352;2024-01-27T10:38:02;3.50;99.90
72440;DHT22;60446;50.752;4.352;2024-01-27T10:40:29;3.50;99.90
72440;DHT22;60446;50.752;4.352;2024-01-27T10:43:07;3.70;99.90
72440;DHT22;60446;50.752;4.352;2024-01-27T10:45:39;3.90;99.90
72440;DHT22;60446;50.752;4.352;2024-01-27T10:48:09;4.00;99.90
72440;DHT22;60446;50.752;4.352;2024-01-27T10:50:40;4.20;99.90
72440;DHT22;60446;50.752;4.352;2024-01-27T10:53:23;4.20;99.90
72440;DHT22;60446;50.752;4.352;2024-01-27T10:55:58;4.20;99.90
72440;DHT22;60446;50.752;4.352;2024-01-27T10:58:26;4.30;99.90
72440;DHT22;60446;50.752;4.352;2024-01-27T11:00:56;4.40;99.90
72440;DHT22;60446;50.752;4.352;2024-01-27T11:03:25;4.50;99.90
72440;DHT22;60446;50.752;4.352;2024-01-27T11:05:54;4.50;99.90
72440;DHT22;60446;50.752;4.352;2024-01-27T11:08:24;4.50;99.90
72440;DHT22;60446;50.752;4.352;2024-01-27T11:10:55;4.50;99.90
72440;DHT22;60446;50.752;4.352;2024-01-27T11:13:23;4.60;99.90
72440;DHT22;60446;50.752;4.352;2024-01-27T11:15:54;4.70;99.90
72440;DHT22;60446;50.752;4.352;2024-01-27T11:18:22;4.60;99.90
72440;DHT22;60446;50.752;4.352;2024-01-27T11:20:58;4.60;99.90
72440;DHT22;60446;50.752;4.352;2024-01-27T11:23:34;4.70;99.90
72440;DHT22;60446;50.752;4.352;2024-01-27T11:26:06;4.80;99.90
72440;DHT22;60446;50.752;4.352;2024-01-27T11:28:35;4.90;99.90
72440;DHT22;60446;50.752;4.352;2024-01-27T11:31:04;5.00;99.90
72440;DHT22;60446;50.752;4.352;2024-01-27T11:33:31;5.00;99.90
72440;DHT22;60446;50.752;4.352;2024-01-27T11:36:03;4.90;99.90
72440;DHT22;60446;50.752;4.352;2024-01-27T11:38:32;5.00;99.90
72440;DHT22;60446;50.752;4.352;2024-01-27T11:41:02;5.10;99.90
72440;DHT22;60446;50.752;4.352;2024-01-27T11:43:31;5.20;99.90
72440;DHT22;60446;50.752;4.352;2024-01-27T11:45:59;5.20;99.90
72440;DHT22;60446;50.752;4.352;2024-01-27T11:48:27;5.30;99.90
72440;DHT22;60446;50.752;4.352;2024-01-27T11:51:06;5.50;99.90
72440;DHT22;60446;50.752;4.352;2024-01-27T11:53:36;5.60;99.90
72440;DHT22;60446;50.752;4.352;2024-01-27T11:56:04;5.60;99.90
72440;DHT22;60446;50.752;4.352;2024-01-27T11:58:33;5.70;99.90
72440;DHT22;60446;50.752;4.352;2024-01-27T12:01:00;5.90;99.90
72440;DHT22;60446;50.752;4.352;2024-01-27T12:03:28;6.00;99.90
72440;DHT22;60446;50.752;4.352;2024-01-27T12:05:56;6.10;99.90
72440;DHT22;60446;50.752;4.352;2024-01-27T12:08:24;6.20;99.90
72440;DHT22;60446;50.752;4.352;2024-01-27T12:10:52;6.40;99.90
72440;DHT22;60446;50.752;4.352;2024-01-27T12:13:20;6.50;99.90
72440;DHT22;60446;50.752;4.352;2024-01-27T12:15:48;6.60;99.30
72440;DHT22;60446;50.752;4.352;2024-01-27T12:18:15;6.70;97.40
72440;DHT22;60446;50.752;4.352;2024-01-27T12:20:47;6.70;98.00
72440;DHT22;60446;50.752;4.352;2024-01-27T12:23:15;6.80;99.90
72440;DHT22;60446;50.752;4.352;2024-01-27T12:25:42;6.90;98.80
72440;DHT22;60446;50.752;4.352;2024-01-27T12:28:19;6.90;96.10
72440;DHT22;60446;50.752;4.352;2024-01-27T12:30:47;6.90;95.70
72440;DHT22;60446;50.752;4.352;2024-01-27T12:33:14;6.90;95.60
72440;DHT22;60446;50.752;4.352;2024-01-27T12:35:41;7.00;92.30
72440;DHT22;60446;50.752;4.352;2024-01-27T12:38:09;7.10;91.70
72440;DHT22;60446;50.752;4.352;2024-01-27T12:40:38;7.10;92.30
72440;DHT22;60446;50.752;4.352;2024-01-27T12:43:05;7.10;91.10
72440;DHT22;60446;50.752;4.352;2024-01-27T12:45:32;7.10;90.90
72440;DHT22;60446;50.752;4.352;2024-01-27T12:48:01;7.20;89.40
72440;DHT22;60446;50.752;4.352;2024-01-27T12:50:31;7.20;89.50
72440;DHT22;60446;50.752;4.352;2024-01-27T12:53:00;7.20;89.60
72440;DHT22;60446;50.752;4.352;2024-01-27T12:55:27;7.30;88.10
72440;DHT22;60446;50.752;4.352;2024-01-27T12:57:55;7.30;89.90
72440;DHT22;60446;50.752;4.352;2024-01-27T13:00:22;7.40;89.40
72440;DHT22;60446;50.752;4.352;2024-01-27T13:02:49;7.40;88.20
72440;DHT22;60446;50.752;4.352;2024-01-27T13:05:16;7.40;88.90
72440;DHT22;60446;50.752;4.352;2024-01-27T13:07:44;7.40;87.30
72440;DHT22;60446;50.752;4.352;2024-01-27T13:10:12;7.40;88.80
72440;DHT22;60446;50.752;4.352;2024-01-27T13:12:39;7.50;88.60
72440;DHT22;60446;50.752;4.352;2024-01-27T13:15:06;7.40;88.70
72440;DHT22;60446;50.752;4.352;2024-01-27T13:17:33;7.50;89.60
72440;DHT22;60446;50.752;4.352;2024-01-27T13:20:01;7.60;88.70
72440;DHT22;60446;50.752;4.352;2024-01-27T13:22:28;7.50;90.00
72440;DHT22;60446;50.752;4.352;2024-01-27T13:24:55;7.50;88.80
72440;DHT22;60446;50.752;4.352;2024-01-27T13:27:24;7.50;88.50
72440;DHT22;60446;50.752;4.352;2024-01-27T13:29:53;7.50;90.10
72440;DHT22;60446;50.752;4.352;2024-01-27T13:32:21;7.50;87.50
72440;DHT22;60446;50.752;4.352;2024-01-27T13:34:48;7.60;87.40
72440;DHT22;60446;50.752;4.352;2024-01-27T13:37:16;7.60;90.30
72440;DHT22;60446;50.752;4.352;2024-01-27T13:39:43;7.60;88.60
72440;DHT22;60446;50.752;4.352;2024-01-27T13:42:11;7.70;89.70
72440;DHT22;60446;50.752;4.352;2024-01-27T13:44:38;7.70;88.10
72440;DHT22;60446;50.752;4.352;2024-01-27T13:47:07;7.70;88.80
72440;DHT22;60446;50.752;4.352;2024-01-27T13:49:36;7.80;86.40
72440;DHT22;60446;50.752;4.352;2024-01-27T13:52:05;7.70;88.70
72440;DHT22;60446;50.752;4.352;2024-01-27T13:54:33;7.60;89.70
72440;DHT22;60446;50.752;4.352;2024-01-27T13:57:05;7.60;90.10
72440;DHT22;60446;50.752;4.352;2024-01-27T13:59:32;7.60;88.10
72440;DHT22;60446;50.752;4.352;2024-01-27T14:02:01;7.60;89.90
72440;DHT22;60446;50.752;4.352;2024-01-27T14:04:28;7.50;90.00
72440;DHT22;60446;50.752;4.352;2024-01-27T14:06:55;7.30;88.90
72440;DHT22;60446;50.752;4.352;2024-01-27T14:09:25;7.20;91.20
72440;DHT22;60446;50.752;4.352;2024-01-27T14:11:54;7.10;92.90
72440;DHT22;60446;50.752;4.352;2024-01-27T14:14:21;7.10;91.50
72440;DHT22;60446;50.752;4.352;2024-01-27T14:16:48;7.10;91.50
72440;DHT22;60446;50.752;4.352;2024-01-27T14:19:16;7.00;92.50
72440;DHT22;60446;50.752;4.352;2024-01-27T14:21:43;6.90;91.60
72440;DHT22;60446;50.752;4.352;2024-01-27T14:24:10;6.80;93.20
72440;DHT22;60446;50.752;4.352;2024-01-27T14:26:37;6.70;94.40
72440;DHT22;60446;50.752;4.352;2024-01-27T14:29:04;6.70;95.40
72440;DHT22;60446;50.752;4.352;2024-01-27T14:31:31;6.60;94.40
72440;DHT22;60446;50.752;4.352;2024-01-27T14:33:59;6.60;93.90
72440;DHT22;60446;50.752;4.352;2024-01-27T14:36:26;6.40;95.10
72440;DHT22;60446;50.752;4.352;2024-01-27T14:38:53;6.30;96.00
72440;DHT22;60446;50.752;4.352;2024-01-27T14:41:21;6.30;95.30
72440;DHT22;60446;50.752;4.352;2024-01-27T14:43:51;6.30;97.30
72440;DHT22;60446;50.752;4.352;2024-01-27T14:46:18;6.20;98.30
72440;DHT22;60446;50.752;4.352;2024-01-27T14:48:45;6.10;98.10
72440;DHT22;60446;50.752;4.352;2024-01-27T14:51:13;6.10;98.80
72440;DHT22;60446;50.752;4.352;2024-01-27T14:53:40;6.00;99.30
72440;DHT22;60446;50.752;4.352;2024-01-27T14:56:08;5.90;99.80
72440;DHT22;60446;50.752;4.352;2024-01-27T14:58:35;5.90;99.90
72440;DHT22;60446;50.752;4.352;2024-01-27T15:01:02;5.80;99.90
72440;DHT22;60446;50.752;4.352;2024-01-27T15:03:30;5.80;99.90
72440;DHT22;60446;50.752;4.352;2024-01-27T15:05:57;5.80;99.90
72440;DHT22;60446;50.752;4.352;2024-01-27T15:08:26;5.90;99.90
72440;DHT22;60446;50.752;4.352;2024-01-27T15:10:53;5.90;99.90
72440;DHT22;60446;50.752;4.352;2024-01-27T15:13:21;5.90;99.90
72440;DHT22;60446;50.752;4.352;2024-01-27T15:15:51;5.90;99.90
72440;DHT22;60446;50.752;4.352;2024-01-27T15:18:18;5.80;99.90
72440;DHT22;60446;50.752;4.352;2024-01-27T15:20:46;5.80;99.90
72440;DHT22;60446;50.752;4.352;2024-01-27T15:23:13;5.80;99.90
72440;DHT22;60446;50.752;4.352;2024-01-27T15:25:40;5.80;99.90
72440;DHT22;60446;50.752;4.352;2024-01-27T15:28:08;5.80;99.90
72440;DHT22;60446;50.752;4.352;2024-01-27T15:30:35;5.70;99.90
72440;DHT22;60446;50.752;4.352;2024-01-27T15:33:02;5.70;99.90
72440;DHT22;60446;50.752;4.352;2024-01-27T15:35:30;5.60;99.90
72440;DHT22;60446;50.752;4.352;2024-01-27T15:38:00;5.60;99.90
72440;DHT22;60446;50.752;4.352;2024-01-27T15:40:27;5.50;99.90